CPLG LEIB-LEIB

Flight info

Callsign CPLG
Flight time 0h 6m
Altitude 1000
Route VFR
Aircraft C172/L-SFG/C

Departure

Time 2026-05-01 14:38
Airport Ibiza Airport (LEIB)

Arrival

Time 2026-05-01 14:44
Airport Ibiza Airport (LEIB)
Time Latitude Longitude Altitude Speed Heading
2026-05-01 14:15 38.87608 1.37353 19 ft 0 kts 332°
2026-05-01 14:19 38.87607 1.37353 19 ft 0 kts 332°
2026-05-01 14:23 38.87621 1.37347 19 ft 7 kts 346°
2026-05-01 14:23 38.87654 1.37287 19 ft 7 kts 239°
2026-05-01 14:24 38.87652 1.37283 19 ft 1 kts 239°
2026-05-01 14:24 38.87634 1.37242 19 ft 11 kts 242°
2026-05-01 14:24 38.87582 1.37114 19 ft 22 kts 241°
2026-05-01 14:24 38.87501 1.36917 19 ft 26 kts 242°
2026-05-01 14:25 38.87443 1.36774 19 ft 1 kts 243°
2026-05-01 14:25 38.87443 1.36773 19 ft 3 kts 240°
2026-05-01 14:25 38.87422 1.36778 19 ft 10 kts 124°
2026-05-01 14:25 38.87279 1.36821 20 ft 20 kts 218°
2026-05-01 14:26 38.87200 1.36646 20 ft 28 kts 241°
2026-05-01 14:26 38.87014 1.36198 19 ft 26 kts 242°
2026-05-01 14:26 38.86959 1.36065 19 ft 24 kts 241°
2026-05-01 14:27 38.86864 1.35846 20 ft 18 kts 223°
2026-05-01 14:27 38.86811 1.35831 20 ft 10 kts 150°
2026-05-01 14:27 38.86786 1.35850 20 ft 0 kts 150°
2026-05-01 14:36 38.86740 1.35889 22 ft 13 kts 136°
2026-05-01 14:36 38.86739 1.35982 22 ft 8 kts 62°
2026-05-01 14:37 38.86740 1.35985 22 ft 0 kts 62°
2026-05-01 14:37 38.86761 1.36036 22 ft 26 kts 62°
2026-05-01 14:37 38.86926 1.36433 21 ft 71 kts 62°
2026-05-01 14:37 38.87192 1.37062 138 ft 86 kts 63°
2026-05-01 14:38 38.87490 1.37763 326 ft 87 kts 66°
2026-05-01 14:38 38.87762 1.38436 496 ft 83 kts 64°
2026-05-01 14:38 38.88076 1.39052 633 ft 82 kts 41°
2026-05-01 14:38 38.88616 1.38981 750 ft 85 kts 332°
2026-05-01 14:39 38.89112 1.38534 781 ft 95 kts 306°
2026-05-01 14:39 38.89144 1.37703 818 ft 99 kts 242°
2026-05-01 14:39 38.88793 1.36933 838 ft 105 kts 240°
2026-05-01 14:39 38.88418 1.36091 844 ft 110 kts 241°
2026-05-01 14:40 38.88076 1.35267 916 ft 100 kts 243°
2026-05-01 14:40 38.87758 1.34489 937 ft 98 kts 242°
2026-05-01 14:40 38.87440 1.33720 945 ft 96 kts 244°
2026-05-01 14:40 38.87408 1.32929 1005 ft 89 kts 296°
2026-05-01 14:41 38.87844 1.32449 1042 ft 84 kts 353°
2026-05-01 14:41 38.88319 1.32760 1067 ft 81 kts 62°
2026-05-01 14:41 38.88313 1.33484 1057 ft 79 kts 120°
2026-05-01 14:41 38.87861 1.33793 1045 ft 82 kts 181°
2026-05-01 14:42 38.87380 1.33412 1019 ft 86 kts 246°
2026-05-01 14:42 38.87401 1.32688 1058 ft 85 kts 304°
2026-05-01 14:42 38.87897 1.32367 1133 ft 85 kts 10°
2026-05-01 14:42 38.88337 1.32865 1170 ft 91 kts 77°
2026-05-01 14:43 38.88011 1.33526 1077 ft 101 kts 146°
2026-05-01 14:43 38.87413 1.33969 893 ft 92 kts 151°
2026-05-01 14:43 38.86866 1.34312 589 ft 83 kts 147°
2026-05-01 14:43 38.86513 1.34817 350 ft 71 kts 112°
2026-05-01 14:44 38.86506 1.35388 152 ft 63 kts 72°
2026-05-01 14:44 38.86849 1.36245 22 ft 40 kts 64°
2026-05-01 14:44 38.87040 1.36696 62 ft 71 kts 64°
2026-05-01 14:45 38.87297 1.37320 207 ft 85 kts 63°
2026-05-01 14:45 38.87908 1.38778 509 ft 105 kts 63°
2026-05-01 14:45 38.88403 1.39431 704 ft 107 kts 25°
2026-05-01 14:46 38.89166 1.39431 876 ft 111 kts 341°
2026-05-01 14:46 38.89858 1.37931 988 ft 111 kts 258°
2026-05-01 14:46 38.89502 1.37078 963 ft 110 kts 239°
2026-05-01 14:47 38.89510 1.36155 983 ft 106 kts 306°
2026-05-01 14:47 38.90075 1.35790 1152 ft 89 kts 11°
2026-05-01 14:47 38.90417 1.36342 1143 ft 91 kts 96°
2026-05-01 14:48 38.89391 1.36395 1102 ft 109 kts 237°
2026-05-01 14:48 38.89363 1.35502 1166 ft 103 kts 308°
2026-05-01 14:48 38.90173 1.36069 1230 ft 101 kts 109°
2026-05-01 14:49 38.89079 1.35782 1267 ft 104 kts 257°
2026-05-01 14:49 38.89918 1.35345 1395 ft 97 kts 63°
2026-05-01 14:50 38.89572 1.36309 1432 ft 105 kts 160°
2026-05-01 14:50 38.89343 1.34589 1568 ft 98 kts 355°
2026-05-01 14:51 38.89896 1.34999 1551 ft 100 kts 72°
2026-05-01 14:51 38.88931 1.35599 1461 ft 121 kts 225°
2026-05-01 14:52 38.88056 1.33783 1293 ft 111 kts 244°
2026-05-01 14:52 38.87639 1.33015 1189 ft 109 kts 219°
2026-05-01 14:52 38.86403 1.33065 971 ft 93 kts 144°
2026-05-01 14:53 38.85895 1.33559 842 ft 94 kts 135°
2026-05-01 14:53 38.85760 1.34323 659 ft 97 kts 58°
2026-05-01 14:53 38.86181 1.34878 413 ft 79 kts 50°
2026-05-01 14:53 38.86498 1.35411 210 ft 72 kts 62°
2026-05-01 14:54 38.86724 1.35946 50 ft 62 kts 66°
2026-05-01 14:54 38.86895 1.36356 21 ft 43 kts 61°
2026-05-01 14:54 38.87084 1.36811 24 ft 76 kts 60°
2026-05-01 14:54 38.87358 1.37449 143 ft 90 kts 66°
2026-05-01 14:55 38.87656 1.38208 296 ft 98 kts 63°
2026-05-01 14:55 38.88002 1.38981 531 ft 97 kts 56°
2026-05-01 14:55 38.88605 1.39331 699 ft 103 kts 359°
2026-05-01 14:55 38.89223 1.38932 864 ft 100 kts 332°
2026-05-01 14:56 38.89693 1.38294 1010 ft 100 kts 289°
2026-05-01 14:56 38.89604 1.37427 1063 ft 106 kts 241°
2026-05-01 14:56 38.89230 1.36579 1065 ft 113 kts 243°
2026-05-01 14:56 38.88856 1.35677 1091 ft 114 kts 243°
2026-05-01 14:57 38.88488 1.34813 1152 ft 107 kts 242°
2026-05-01 14:57 38.87783 1.33096 1021 ft 106 kts 243°
2026-05-01 14:57 38.87536 1.32233 1059 ft 99 kts 272°
2026-05-01 14:58 38.87847 1.31563 1163 ft 87 kts 340°
2026-05-01 14:58 38.88356 1.31808 1205 ft 84 kts 59°
2026-05-01 14:58 38.88282 1.32518 1199 ft 91 kts 134°
2026-05-01 14:58 38.87653 1.32629 1069 ft 98 kts 195°
2026-05-01 14:59 38.86972 1.32437 881 ft 100 kts 180°
2026-05-01 14:59 38.86340 1.32589 757 ft 93 kts 162°
2026-05-01 14:59 38.85783 1.32895 683 ft 73 kts 135°
2026-05-01 14:59 38.85655 1.33421 505 ft 67 kts 69°
2026-05-01 15:00 38.86085 1.34396 301 ft 65 kts 66°
2026-05-01 15:00 38.86306 1.34920 225 ft 67 kts 64°
2026-05-01 15:00 38.86527 1.35450 146 ft 66 kts 66°
2026-05-01 15:01 38.86737 1.35964 69 ft 62 kts 65°
2026-05-01 15:01 38.86926 1.36415 21 ft 50 kts 64°
2026-05-01 15:01 38.87080 1.36815 23 ft 65 kts 60°
2026-05-01 15:01 38.87347 1.37429 101 ft 88 kts 63°
2026-05-01 15:02 38.87638 1.38156 316 ft 89 kts 64°
2026-05-01 15:02 38.87739 1.38390 406 ft 89 kts 63°
2026-05-01 15:02 38.88519 1.39206 716 ft 99 kts 355°
2026-05-01 15:02 38.89171 1.38809 838 ft 107 kts 336°
2026-05-01 15:03 38.89678 1.38177 1047 ft 104 kts 286°
2026-05-01 15:03 38.89549 1.37276 1141 ft 110 kts 244°
2026-05-01 15:03 38.89114 1.36390 1137 ft 121 kts 236°
2026-05-01 15:03 38.88654 1.35498 1225 ft 122 kts 238°
2026-05-01 15:04 38.88217 1.34571 1389 ft 113 kts 249°
2026-05-01 15:04 38.88243 1.33689 1634 ft 98 kts 298°
2026-05-01 15:04 38.88733 1.33164 1676 ft 97 kts 352°
2026-05-01 15:04 38.89346 1.33452 1705 ft 98 kts 50°
2026-05-01 15:05 38.89555 1.34259 1759 ft 98 kts 91°
2026-05-01 15:05 38.89254 1.35043 1791 ft 106 kts 143°
2026-05-01 15:05 38.88519 1.35078 1848 ft 113 kts 204°
2026-05-01 15:05 38.88016 1.34357 1959 ft 113 kts 249°
2026-05-01 15:06 38.88049 1.33376 1962 ft 113 kts 301°
2026-05-01 15:06 38.88659 1.32904 2004 ft 103 kts 12°
2026-05-01 15:06 38.88926 1.33547 2149 ft 93 kts 112°
2026-05-01 15:06 38.88497 1.34272 2097 ft 106 kts 129°
2026-05-01 15:07 38.87906 1.34931 2043 ft 119 kts 140°
2026-05-01 15:07 38.87325 1.35699 1989 ft 120 kts 133°
2026-05-01 15:07 38.86647 1.36265 2085 ft 113 kts 141°
2026-05-01 15:07 38.86044 1.36898 2144 ft 111 kts 141°
2026-05-01 15:08 38.85431 1.37485 2148 ft 110 kts 142°
2026-05-01 15:08 38.84823 1.38071 2178 ft 108 kts 141°
2026-05-01 15:08 38.84137 1.38456 2194 ft 112 kts 169°
2026-05-01 15:08 38.83369 1.38639 2190 ft 113 kts 167°
2026-05-01 15:09 38.82591 1.38835 2193 ft 113 kts 167°
2026-05-01 15:09 38.81825 1.39025 2191 ft 111 kts 167°
2026-05-01 15:09 38.81064 1.39220 2181 ft 111 kts 167°
2026-05-01 15:09 38.80306 1.39408 2183 ft 111 kts 167°
2026-05-01 15:10 38.79563 1.39595 2185 ft 110 kts 168°
2026-05-01 15:10 38.78306 1.39910 2190 ft 109 kts 167°
2026-05-01 15:10 38.77316 1.40151 2188 ft 109 kts 167°
2026-05-01 15:11 38.76568 1.40337 2186 ft 110 kts 167°
2026-05-01 15:11 38.75150 1.40982 2187 ft 108 kts 153°
2026-05-01 15:11 38.74462 1.41403 2191 ft 112 kts 153°
2026-05-01 15:12 38.73989 1.41692 2196 ft 114 kts 152°
2026-05-01 15:12 38.72512 1.42593 2199 ft 119 kts 152°
2026-05-01 15:12 38.71765 1.43048 2195 ft 122 kts 153°
2026-05-01 15:13 38.69461 1.44453 2193 ft 120 kts 153°
2026-05-01 15:14 38.67976 1.45366 2126 ft 118 kts 153°
2026-05-01 15:14 38.67233 1.45826 1941 ft 119 kts 146°
2026-05-01 15:14 38.67106 1.47668 1573 ft 114 kts 70°
2026-05-01 15:15 38.67617 1.49561 1244 ft 113 kts 71°
2026-05-01 15:15 38.68135 1.51440 999 ft 107 kts 70°
2026-05-01 15:16 38.68597 1.53079 979 ft 92 kts 71°
2026-05-01 15:16 38.69028 1.54553 987 ft 87 kts 62°
2026-05-01 15:17 38.70019 1.54296 985 ft 89 kts 324°
2026-05-01 15:18 38.71378 1.52683 987 ft 92 kts 283°
2026-05-01 15:18 38.71490 1.51875 995 ft 93 kts 282°
2026-05-01 15:19 38.71856 1.49471 989 ft 90 kts 283°
2026-05-01 15:19 38.72086 1.47905 988 ft 89 kts 282°
2026-05-01 15:19 38.72199 1.47130 983 ft 88 kts 283°
2026-05-01 15:20 38.72430 1.45523 999 ft 93 kts 283°
2026-05-01 15:20 38.72544 1.44717 1001 ft 94 kts 282°
2026-05-01 15:20 38.72667 1.43885 997 ft 95 kts 283°
2026-05-01 15:21 38.72975 1.43204 997 ft 88 kts 335°
2026-05-01 15:21 38.73505 1.42812 1002 ft 89 kts 332°
2026-05-01 15:21 38.74056 1.42391 1003 ft 94 kts 332°
2026-05-01 15:21 38.74631 1.41963 991 ft 96 kts 333°
2026-05-01 15:22 38.75751 1.41106 992 ft 91 kts 332°
2026-05-01 15:22 38.76296 1.40698 990 ft 91 kts 332°
2026-05-01 15:22 38.76845 1.40284 990 ft 91 kts 333°
2026-05-01 15:23 38.77400 1.39938 983 ft 87 kts 349°
2026-05-01 15:23 38.77976 1.39730 985 ft 86 kts 347°
2026-05-01 15:23 38.78563 1.39521 985 ft 91 kts 346°
2026-05-01 15:23 38.79186 1.39302 998 ft 94 kts 347°
2026-05-01 15:24 38.79819 1.39081 1000 ft 95 kts 347°
2026-05-01 15:24 38.80462 1.38861 1001 ft 97 kts 348°
2026-05-01 15:24 38.81116 1.38630 999 ft 99 kts 347°
2026-05-01 15:24 38.81764 1.38409 1075 ft 93 kts 347°
2026-05-01 15:25 38.82388 1.38191 1095 ft 93 kts 347°
2026-05-01 15:25 38.83018 1.37968 1133 ft 94 kts 347°
2026-05-01 15:25 38.83644 1.37751 1161 ft 94 kts 347°
2026-05-01 15:25 38.84307 1.37525 1044 ft 105 kts 347°
2026-05-01 15:26 38.85012 1.37288 999 ft 104 kts 347°
2026-05-01 15:26 38.85684 1.37058 995 ft 97 kts 345°
2026-05-01 15:26 38.86075 1.36425 980 ft 97 kts 269°
2026-05-01 15:26 38.85804 1.35658 982 ft 94 kts 241°
2026-05-01 15:27 38.85489 1.34931 977 ft 93 kts 227°
2026-05-01 15:27 38.84925 1.34806 982 ft 87 kts 150°
2026-05-01 15:27 38.84468 1.35260 986 ft 82 kts 111°
2026-05-01 15:28 38.84895 1.36528 987 ft 79 kts 62°
2026-05-01 15:28 38.85172 1.37137 990 ft 80 kts 62°
2026-05-01 15:28 38.85535 1.37650 978 ft 82 kts 13°
2026-05-01 15:29 38.86482 1.36909 983 ft 85 kts 294°
2026-05-01 15:29 38.86328 1.36211 990 ft 86 kts 239°
2026-05-01 15:29 38.85752 1.34823 1001 ft 89 kts 241°
2026-05-01 15:30 38.84863 1.34084 988 ft 87 kts 147°
2026-05-01 15:31 38.84789 1.36368 988 ft 81 kts 62°
2026-05-01 15:31 38.85354 1.37611 992 ft 80 kts 62°
2026-05-01 15:32 38.86238 1.37864 993 ft 85 kts 330°
2026-05-01 15:32 38.86313 1.36573 986 ft 89 kts 242°
2026-05-01 15:33 38.85435 1.34434 956 ft 95 kts 255°
2026-05-01 15:34 38.86311 1.34904 386 ft 80 kts 66°